Time;durP1;ratioP1;P1;durP2;ratioP2;P2;SDS_P1;SDS_P2;PMS_P1;PMS_P2;Temp;Humidity;BMP_temperature;BMP_pressure;BME280_temperature;BME280_humidity;BME280_pressure;Samples;Min_cycle;Max_cycle;Signal;HPM_P1;HPM_P2
2023/05/25 00:01:34;;;;;;;55.88;52.88;;;;;;;19.37;43.31;102448.22;4991580;28;20041;-74
2023/05/25 00:04:02;;;;;;;56.70;53.97;;;;;;;19.34;43.30;102454.22;5004976;28;20057;-74
2023/05/25 00:06:28;;;;;;;57.35;54.25;;;;;;;19.32;42.89;102461.88;5001660;28;20070;-74
2023/05/25 00:08:56;;;;;;;58.85;55.67;;;;;;;19.30;43.31;102453.09;5015076;28;20062;-75
2023/05/25 00:11:25;;;;;;;57.15;54.35;;;;;;;19.27;43.35;102450.88;5006529;28;20048;-75
2023/05/25 00:13:51;;;;;;;59.80;56.05;;;;;;;19.25;43.10;102455.78;5016457;28;20034;-75
2023/05/25 00:16:16;;;;;;;57.53;54.28;;;;;;;19.23;43.45;102449.75;5016622;28;20050;-74
2023/05/25 00:18:42;;;;;;;58.55;55.58;;;;;;;19.20;43.33;102450.25;5012974;28;20053;-74
2023/05/25 00:21:08;;;;;;;54.50;51.60;;;;;;;19.18;43.28;102460.66;5007652;28;20030;-74
2023/05/25 00:23:33;;;;;;;55.90;52.50;;;;;;;19.16;43.07;102457.34;5016500;28;20026;-74
2023/05/25 00:26:02;;;;;;;57.30;54.15;;;;;;;19.14;43.17;102454.03;5006018;28;20722;-74
2023/05/25 00:28:27;;;;;;;57.47;54.47;;;;;;;19.12;43.44;102456.22;5003010;28;20502;-78
2023/05/25 00:30:52;;;;;;;57.53;54.25;;;;;;;19.09;43.33;102456.72;5007924;28;20038;-74
2023/05/25 00:33:18;;;;;;;57.97;54.65;;;;;;;19.07;43.33;102461.63;5003817;28;20102;-74
2023/05/25 00:35:43;;;;;;;57.45;54.30;;;;;;;19.05;43.65;102461.06;5017343;28;20092;-74
2023/05/25 00:38:13;;;;;;;57.95;54.60;;;;;;;19.02;43.31;102462.41;5007399;28;20038;-75
2023/05/25 00:40:40;;;;;;;57.53;54.00;;;;;;;19.00;43.51;102456.38;5001792;28;20041;-74
2023/05/25 00:43:07;;;;;;;56.45;53.35;;;;;;;18.98;43.51;102458.53;5033135;28;20030;-76
2023/05/25 00:45:32;;;;;;;57.10;53.83;;;;;;;18.96;43.36;102457.97;5011281;28;20042;-77
2023/05/25 00:47:59;;;;;;;61.03;57.75;;;;;;;18.93;43.37;102459.31;5000052;28;20140;-75
2023/05/25 00:50:41;;;;;;;55.97;53.13;;;;;;;18.90;43.52;102448.88;5000288;28;20038;-76
2023/05/25 00:53:07;;;;;;;56.47;53.25;;;;;;;18.87;43.83;102456.75;5008986;28;20045;-74
2023/05/25 00:55:39;;;;;;;54.90;51.58;;;;;;;18.85;43.31;102448.81;4999624;28;20038;-75
2023/05/25 00:58:07;;;;;;;54.90;52.22;;;;;;;18.82;43.62;102449.31;5010875;28;20033;-75
2023/05/25 01:00:37;;;;;;;56.47;53.58;;;;;;;18.81;43.58;102455.88;5011588;28;20037;-75
2023/05/25 01:03:12;;;;;;;54.53;51.75;;;;;;;18.78;43.82;102457.22;5009002;28;20040;-74
2023/05/25 01:05:41;;;;;;;54.97;51.75;;;;;;;18.76;43.51;102464.84;5001613;28;20034;-75
2023/05/25 01:08:08;;;;;;;55.33;52.38;;;;;;;18.73;44.00;102464.53;5015471;28;20492;-76
2023/05/25 01:10:36;;;;;;;55.30;52.28;;;;;;;18.71;43.64;102466.69;5008845;28;20079;-77
2023/05/25 01:13:03;;;;;;;55.40;52.40;;;;;;;18.69;43.88;102466.09;5000301;28;20030;-74
2023/05/25 01:15:32;;;;;;;57.55;53.80;;;;;;;18.68;43.73;102469.94;5004001;28;20038;-74
2023/05/25 01:17:58;;;;;;;57.25;53.60;;;;;;;18.65;43.67;102471.28;5002433;28;20039;-74
2023/05/25 01:20:26;;;;;;;56.85;53.45;;;;;;;18.63;43.81;102469.88;5001593;28;20057;-74
2023/05/25 01:22:59;;;;;;;56.50;53.60;;;;;;;18.60;44.05;102471.22;5012331;28;20049;-74
2023/05/25 01:25:38;;;;;;;56.40;53.20;;;;;;;18.58;43.99;102473.38;5000851;28;20065;-74
2023/05/25 01:28:27;;;;;;;55.97;52.75;;;;;;;18.56;43.86;102475.53;5000092;28;20029;-75
2023/05/25 01:30:56;;;;;;;54.20;51.13;;;;;;;18.51;43.65;102484.50;4998317;28;20026;-76
2023/05/25 01:33:22;;;;;;;56.85;53.30;;;;;;;18.50;43.89;102488.34;5008865;28;20025;-74
2023/05/25 01:35:49;;;;;;;56.33;53.47;;;;;;;18.48;44.08;102486.94;5011620;28;20092;-74
2023/05/25 01:38:16;;;;;;;53.95;50.95;;;;;;;18.45;44.08;102477.31;5018699;28;20061;-75
2023/05/25 01:40:41;;;;;;;54.13;50.97;;;;;;;18.44;43.81;102483.84;5014812;28;20045;-75
2023/05/25 01:43:07;;;;;;;54.25;50.65;;;;;;;18.42;43.93;102477.84;5012806;28;20386;-75
2023/05/25 01:45:33;;;;;;;56.00;52.45;;;;;;;18.40;44.31;102474.50;5013489;28;20390;-75
2023/05/25 01:48:11;;;;;;;54.95;51.90;;;;;;;18.38;44.18;102479.41;5001711;28;20042;-74
2023/05/25 01:50:42;;;;;;;;;;;;;;;18.36;43.97;102492.50;5004303;28;20026;-75
2023/05/25 01:53:25;;;;;;;53.67;50.20;;;;;;;18.31;44.09;102497.91;5008304;28;19924;-75
2023/05/25 01:56:04;;;;;;;52.60;48.85;;;;;;;18.28;44.20;102496.50;4999746;28;20510;-75
2023/05/25 01:58:35;;;;;;;52.10;49.10;;;;;;;18.26;44.26;102486.88;5004767;28;20096;-77
2023/05/25 02:01:01;;;;;;;56.17;53.03;;;;;;;18.24;44.28;102500.81;5000659;28;20033;-75
2023/05/25 02:03:27;;;;;;;52.20;49.47;;;;;;;18.21;43.99;102487.63;5003481;28;20530;-77
2023/05/25 02:05:52;;;;;;;52.15;49.53;;;;;;;18.19;43.90;102497.19;5017916;28;20497;-75
2023/05/25 02:08:19;;;;;;;51.85;49.15;;;;;;;18.17;44.25;102489.25;5020896;28;20129;-76
2023/05/25 02:10:45;;;;;;;53.22;50.05;;;;;;;18.17;44.20;102489.25;4999536;28;20026;-76
2023/05/25 02:13:10;;;;;;;52.28;48.83;;;;;;;18.14;44.31;102486.97;5003698;28;20046;-75
2023/05/25 02:15:36;;;;;;;53.65;50.42;;;;;;;18.12;44.34;102491.91;5001234;28;20470;-75
2023/05/25 02:18:01;;;;;;;52.67;49.75;;;;;;;18.11;44.14;102495.69;5010286;28;20034;-75
2023/05/25 02:20:27;;;;;;;52.38;49.45;;;;;;;18.08;44.39;102486.09;5002437;28;20092;-75
2023/05/25 02:22:53;;;;;;;51.85;49.22;;;;;;;18.07;43.99;102484.44;5006527;28;20433;-75
2023/05/25 02:25:18;;;;;;;52.08;48.97;;;;;;;18.04;44.21;102484.09;5015819;28;20442;-75
2023/05/25 02:27:44;;;;;;;53.90;50.65;;;;;;;18.02;44.45;102487.09;4991508;28;20042;-75
2023/05/25 02:30:09;;;;;;;53.28;50.15;;;;;;;18.00;44.67;102483.78;5001901;28;20034;-76
2023/05/25 02:32:35;;;;;;;53.15;50.28;;;;;;;17.98;44.54;102485.94;5020514;28;20073;-75
2023/05/25 02:35:00;;;;;;;54.55;51.65;;;;;;;17.97;44.27;102477.97;5007552;28;20463;-74
2023/05/25 02:37:26;;;;;;;52.70;49.90;;;;;;;17.94;44.65;102480.16;5003610;28;20034;-74
2023/05/25 02:39:51;;;;;;;52.70;49.80;;;;;;;17.92;44.26;102484.22;5009613;28;20039;-77
2023/05/25 02:42:17;;;;;;;51.78;49.05;;;;;;;17.90;44.40;102489.91;5012218;28;20037;-75
2023/05/25 02:44:47;;;;;;;52.80;49.72;;;;;;;17.88;44.17;102475.66;5005070;28;20034;-75
2023/05/25 02:47:17;;;;;;;52.90;49.53;;;;;;;17.87;44.52;102481.41;5006227;28;20516;-75
2023/05/25 02:49:46;;;;;;;52.33;49.17;;;;;;;17.84;44.67;102481.88;5009875;28;20117;-77
2023/05/25 02:52:11;;;;;;;52.10;49.00;;;;;;;17.82;44.58;102478.59;5008735;28;20034;-75
2023/05/25 02:54:36;;;;;;;53.03;49.58;;;;;;;17.80;44.40;102480.75;5004064;28;20041;-75
2023/05/25 02:57:03;;;;;;;54.42;51.22;;;;;;;17.78;44.33;102491.06;5003437;28;20042;-74
2023/05/25 02:59:29;;;;;;;51.15;48.50;;;;;;;17.76;44.71;102493.19;5006140;28;20422;-75
2023/05/25 03:01:54;;;;;;;50.95;48.25;;;;;;;17.73;44.43;102494.53;5007365;28;20022;-77
2023/05/25 03:04:20;;;;;;;50.88;48.38;;;;;;;17.72;44.33;102498.34;5001769;28;20037;-75
2023/05/25 03:06:46;;;;;;;51.25;48.55;;;;;;;17.69;44.43;102488.75;5015623;28;20481;-75
2023/05/25 03:09:12;;;;;;;51.38;48.40;;;;;;;17.67;44.63;102495.53;5018496;28;20070;-76
2023/05/25 03:11:37;;;;;;;52.08;49.25;;;;;;;17.65;44.65;102497.69;5005219;28;20121;-75
2023/05/25 03:14:03;;;;;;;52.90;49.75;;;;;;;17.63;44.76;102495.19;5002575;28;20069;-74
2023/05/25 03:16:28;;;;;;;51.35;48.45;;;;;;;17.60;44.68;102498.41;4996717;28;20062;-74
2023/05/25 03:18:54;;;;;;;52.40;49.13;;;;;;;17.60;44.67;102508.53;5009644;28;20065;-75
2023/05/25 03:21:21;;;;;;;51.83;48.67;;;;;;;17.57;44.56;102501.66;5002884;28;20046;-74
2023/05/25 03:23:47;;;;;;;51.83;48.58;;;;;;;17.55;44.81;102511.16;5007700;28;20102;-75
2023/05/25 03:26:12;;;;;;;51.30;48.70;;;;;;;17.54;44.61;102518.53;5018939;28;20054;-76
2023/05/25 03:28:38;;;;;;;51.60;48.90;;;;;;;17.51;44.35;102521.75;5017271;28;20474;-74
2023/05/25 03:31:03;;;;;;;51.20;48.30;;;;;;;17.49;45.04;102524.75;4993970;28;20108;-75
2023/05/25 03:33:29;;;;;;;50.72;47.88;;;;;;;17.47;44.92;102526.06;5005275;28;20344;-74
2023/05/25 03:35:54;;;;;;;51.13;48.45;;;;;;;17.46;44.96;102527.13;5015712;28;20037;-74
2023/05/25 03:38:20;;;;;;;51.70;48.83;;;;;;;17.44;44.90;102532.03;5018909;28;20169;-75
2023/05/25 03:40:45;;;;;;;51.75;48.67;;;;;;;17.42;44.59;102531.44;5020811;28;20076;-75
2023/05/25 03:43:11;;;;;;;51.00;48.15;;;;;;;17.40;45.03;102530.84;5012934;28;20038;-74
2023/05/25 03:45:36;;;;;;;51.47;48.80;;;;;;;17.38;44.70;102525.59;5017895;28;20091;-75
2023/05/25 03:48:01;;;;;;;50.67;47.85;;;;;;;17.35;44.76;102526.09;5010760;28;20040;-76
2023/05/25 03:50:27;;;;;;;49.25;46.58;;;;;;;17.33;44.84;102528.25;4998188;28;20077;-75
2023/05/25 03:52:52;;;;;;;48.58;46.03;;;;;;;17.31;44.63;102524.94;5010819;28;20053;-76
2023/05/25 03:55:18;;;;;;;49.50;46.67;;;;;;;17.29;45.01;102538.84;5010473;28;20033;-75
2023/05/25 03:57:43;;;;;;;48.95;46.13;;;;;;;17.27;44.67;102535.53;5010214;28;20375;-75
2023/05/25 04:00:10;;;;;;;51.33;48.28;;;;;;;17.26;44.89;102546.69;5018103;28;20027;-76
2023/05/25 04:02:35;;;;;;;47.15;44.65;;;;;;;17.24;44.84;102541.47;5012316;28;20042;-76
2023/05/25 04:05:01;;;;;;;49.88;46.33;;;;;;;17.22;44.98;102545.53;5003466;28;20049;-76
2023/05/25 04:07:28;;;;;;;48.22;45.55;;;;;;;17.19;44.94;102541.38;5005540;28;20080;-75
2023/05/25 04:09:56;;;;;;;48.80;45.90;;;;;;;17.18;44.74;102528.78;4999132;28;20042;-75
2023/05/25 04:12:22;;;;;;;48.85;46.15;;;;;;;17.17;44.84;102537.22;5005728;28;20092;-75
2023/05/25 04:14:47;;;;;;;50.13;47.05;;;;;;;17.14;44.60;102538.56;5002105;28;20042;-78
2023/05/25 04:17:13;;;;;;;50.15;47.28;;;;;;;17.13;44.98;102542.34;5003949;28;20037;-74
2023/05/25 04:19:38;;;;;;;50.10;46.88;;;;;;;17.11;45.24;102546.38;5008064;28;20050;-74
2023/05/25 04:22:04;;;;;;;48.55;45.75;;;;;;;17.09;45.06;102552.94;5008461;28;20038;-75
2023/05/25 04:24:31;;;;;;;50.33;47.22;;;;;;;17.07;45.17;102546.03;5016197;28;20038;-74
2023/05/25 04:26:56;;;;;;;48.38;45.78;;;;;;;17.05;44.97;102553.66;5002109;28;20045;-74
2023/05/25 04:29:22;;;;;;;48.58;45.85;;;;;;;17.03;45.18;102553.06;5008390;28;20043;-75
2023/05/25 04:31:48;;;;;;;50.45;47.58;;;;;;;17.03;45.30;102561.25;5008038;28;20034;-74
2023/05/25 04:34:13;;;;;;;51.00;48.13;;;;;;;17.01;45.00;102561.50;5003249;28;20051;-74
2023/05/25 04:36:41;;;;;;;48.65;46.08;;;;;;;17.00;44.90;102559.00;5004102;28;20152;-74
2023/05/25 04:39:07;;;;;;;47.03;44.67;;;;;;;16.98;45.35;102558.41;5003140;28;20061;-74
2023/05/25 04:41:33;;;;;;;48.42;45.58;;;;;;;16.96;45.29;102563.28;5007050;28;20065;-74
2023/05/25 04:43:58;;;;;;;48.08;45.58;;;;;;;16.95;45.19;102564.34;5021251;28;20041;-74
2023/05/25 04:46:24;;;;;;;49.50;46.85;;;;;;;16.92;45.21;102552.03;5008894;28;20041;-74
2023/05/25 04:48:49;;;;;;;48.63;45.83;;;;;;;16.90;45.29;102553.34;4997298;28;20700;-74
2023/05/25 04:51:15;;;;;;;48.15;45.55;;;;;;;16.88;44.94;102553.56;5006229;28;20030;-75
2023/05/25 04:53:40;;;;;;;48.47;45.33;;;;;;;16.87;45.26;102558.19;5029192;28;20033;-75
2023/05/25 04:56:06;;;;;;;48.55;45.85;;;;;;;16.85;45.28;102560.34;5004854;28;20152;-81
2023/05/25 04:58:32;;;;;;;48.35;45.47;;;;;;;16.84;45.27;102561.41;4989927;28;20037;-73
2023/05/25 05:00:58;;;;;;;47.60;45.10;;;;;;;16.83;45.38;102564.38;4999459;28;20490;-74
2023/05/25 05:03:24;;;;;;;49.58;46.42;;;;;;;16.81;45.40;102575.53;5008492;28;20037;-75
2023/05/25 05:05:49;;;;;;;46.05;43.75;;;;;;;16.80;45.48;102579.31;5006979;28;20037;-74
2023/05/25 05:08:15;;;;;;;50.00;47.15;;;;;;;16.80;45.13;102581.22;4993076;28;20106;-75
2023/05/25 05:10:40;;;;;;;46.17;43.88;;;;;;;16.79;45.64;102587.78;5011590;28;20038;-75
2023/05/25 05:13:06;;;;;;;45.88;43.50;;;;;;;16.77;45.32;102579.78;4998579;28;20577;-77
2023/05/25 05:15:31;;;;;;;48.05;44.97;;;;;;;16.77;45.10;102576.22;5016538;28;20485;-77
2023/05/25 05:17:57;;;;;;;47.45;45.03;;;;;;;16.75;45.28;102579.19;4994102;28;20407;-76
2023/05/25 05:20:23;;;;;;;46.85;44.42;;;;;;;16.75;45.43;102576.47;5003375;28;20057;-75
2023/05/25 05:22:48;;;;;;;47.08;44.63;;;;;;;16.75;45.15;102576.47;5012535;28;20088;-75
2023/05/25 05:25:14;;;;;;;48.13;45.72;;;;;;;16.75;45.20;102581.09;5008169;28;20463;-75
2023/05/25 05:27:39;;;;;;;48.33;45.50;;;;;;;16.73;45.47;102584.06;5020012;28;20061;-76
2023/05/25 05:30:06;;;;;;;47.70;45.05;;;;;;;16.73;45.56;102585.94;4991994;28;20058;-73
2023/05/25 05:32:31;;;;;;;46.33;43.63;;;;;;;16.72;45.51;102593.31;4992537;28;20040;-74
2023/05/25 05:34:57;;;;;;;46.33;43.53;;;;;;;16.73;45.44;102592.25;5000439;28;20042;-74
2023/05/25 05:37:22;;;;;;;49.15;46.55;;;;;;;16.74;45.73;102593.91;5023944;28;20040;-74
2023/05/25 05:39:48;;;;;;;46.95;43.97;;;;;;;16.74;45.64;102595.81;5012450;28;20081;-74
2023/05/25 05:42:13;;;;;;;47.80;45.05;;;;;;;16.74;45.32;102601.28;5000021;28;20089;-74
2023/05/25 05:44:38;;;;;;;46.25;43.80;;;;;;;16.73;45.51;102597.72;5008402;28;20390;-75
2023/05/25 05:47:04;;;;;;;45.33;42.35;;;;;;;16.73;45.50;102597.72;5016643;28;20038;-75
2023/05/25 05:49:30;;;;;;;46.95;44.42;;;;;;;16.75;45.31;102600.19;4998077;28;20037;-74
2023/05/25 05:51:56;;;;;;;47.33;44.22;;;;;;;16.75;45.59;102611.09;5007570;28;20391;-74
2023/05/25 05:54:22;;;;;;;47.65;45.15;;;;;;;16.75;45.59;102609.22;5015993;28;20037;-75
2023/05/25 05:56:47;;;;;;;46.08;43.67;;;;;;;16.75;45.22;102617.38;5008540;28;20045;-75
2023/05/25 05:59:13;;;;;;;46.42;43.70;;;;;;;16.76;45.65;102621.81;5000566;28;20046;-77
2023/05/25 06:01:38;;;;;;;45.85;43.45;;;;;;;16.76;45.58;102619.06;5008522;28;20081;-73
2023/05/25 06:04:07;;;;;;;47.40;44.45;;;;;;;16.76;45.39;102627.25;5011648;28;20080;-70
2023/05/25 06:06:36;;;;;;;47.13;44.10;;;;;;;16.76;45.55;102627.25;5012319;28;20408;-71
2023/05/25 06:09:04;;;;;;;47.22;44.25;;;;;;;16.77;45.71;102628.09;5005861;28;20034;-72
2023/05/25 06:11:30;;;;;;;47.63;44.73;;;;;;;16.76;45.88;102626.44;5003945;28;20087;-72
2023/05/25 06:13:55;;;;;;;47.22;44.47;;;;;;;16.76;45.65;102630.00;5028037;28;20042;-71
2023/05/25 06:16:20;;;;;;;48.13;45.45;;;;;;;16.77;45.93;102628.09;4996834;28;20034;-71
2023/05/25 06:18:46;;;;;;;47.50;44.92;;;;;;;16.77;46.06;102628.09;4992558;28;20126;-72
2023/05/25 06:21:11;;;;;;;46.53;43.97;;;;;;;16.77;45.76;102628.91;4991573;28;20491;-75
2023/05/25 06:23:37;;;;;;;46.10;43.70;;;;;;;16.80;46.24;102622.16;5017051;28;20188;-72
2023/05/25 06:26:06;;;;;;;47.00;44.10;;;;;;;16.82;45.84;102620.03;4991725;28;20545;-72
2023/05/25 06:28:31;;;;;;;46.88;44.03;;;;;;;16.84;46.21;102637.00;5007276;28;20030;-73
2023/05/25 06:30:57;;;;;;;45.50;43.10;;;;;;;16.85;46.15;102639.47;5001136;28;20446;-72
2023/05/25 06:33:22;;;;;;;46.30;43.90;;;;;;;16.86;46.16;102637.63;5008032;28;20061;-72
2023/05/25 06:35:48;;;;;;;47.70;44.90;;;;;;;16.87;46.08;102636.53;5007927;28;20034;-72
2023/05/25 06:38:14;;;;;;;45.75;42.97;;;;;;;16.89;46.42;102633.56;5008974;28;20034;-73
2023/05/25 06:40:39;;;;;;;46.88;44.28;;;;;;;16.91;46.48;102635.00;4991922;28;20066;-73
2023/05/25 06:43:05;;;;;;;45.55;43.08;;;;;;;16.94;46.44;102645.44;5009076;28;20078;-73
2023/05/25 06:45:30;;;;;;;46.53;44.05;;;;;;;16.97;46.56;102644.94;5018350;28;20138;-72
2023/05/25 06:47:56;;;;;;;46.72;44.03;;;;;;;17.00;46.61;102644.47;5010678;28;20060;-73
2023/05/25 06:50:21;;;;;;;48.17;45.40;;;;;;;17.03;46.44;102644.00;5002245;28;20030;-72
2023/05/25 06:52:47;;;;;;;47.17;44.67;;;;;;;17.07;46.63;102647.06;5012118;28;20110;-72
2023/05/25 06:55:12;;;;;;;49.17;45.63;;;;;;;17.09;46.49;102645.75;5009983;28;20034;-73
2023/05/25 06:57:38;;;;;;;47.13;44.58;;;;;;;17.14;46.67;102657.88;5009847;28;20474;-72
2023/05/25 07:00:10;;;;;;;48.28;45.50;;;;;;;17.17;46.82;102657.38;5009169;28;20093;-72
2023/05/25 07:02:35;;;;;;;46.53;43.72;;;;;;;17.19;46.89;102658.81;4975148;28;20043;-73
2023/05/25 07:05:01;;;;;;;47.47;44.47;;;;;;;17.23;46.71;102664.59;5012671;28;20501;-72
2023/05/25 07:07:27;;;;;;;48.85;45.88;;;;;;;17.27;46.76;102660.34;4991699;28;20042;-72
2023/05/25 07:09:52;;;;;;;48.50;45.80;;;;;;;17.29;46.96;102669.94;5003871;28;20034;-72
2023/05/25 07:12:17;;;;;;;48.47;45.47;;;;;;;17.32;46.72;102663.16;5011108;28;20042;-72
2023/05/25 07:14:46;;;;;;;49.78;47.00;;;;;;;17.35;47.07;102661.84;5010509;28;20454;-72
2023/05/25 07:17:12;;;;;;;51.60;48.50;;;;;;;17.37;46.92;102663.28;5000297;28;20038;-75
2023/05/25 07:19:38;;;;;;;49.05;46.45;;;;;;;17.42;47.31;102659.81;5004167;28;20056;-74
2023/05/25 07:22:03;;;;;;;50.08;47.17;;;;;;;17.46;47.35;102664.56;5002460;28;20512;-72
2023/05/25 07:24:29;;;;;;;51.13;48.25;;;;;;;17.49;47.26;102664.06;5015863;28;20116;-72
2023/05/25 07:26:54;;;;;;;50.78;47.85;;;;;;;17.54;47.29;102660.63;4999954;28;20117;-72
2023/05/25 07:29:19;;;;;;;48.55;46.03;;;;;;;17.59;47.33;102666.19;5007762;28;20127;-73
2023/05/25 07:31:45;;;;;;;49.35;46.60;;;;;;;17.65;47.11;102667.94;5013944;28;20045;-72
2023/05/25 07:34:10;;;;;;;50.72;47.67;;;;;;;17.69;47.14;102671.84;5013745;28;20034;-75
2023/05/25 07:36:36;;;;;;;50.78;48.17;;;;;;;17.72;46.91;102673.28;5013543;28;20033;-72
2023/05/25 07:39:01;;;;;;;49.58;46.75;;;;;;;17.77;46.86;102669.81;5029530;28;20029;-73
2023/05/25 07:41:26;;;;;;;51.13;48.50;;;;;;;17.81;47.03;102668.25;5010968;28;20047;-72
2023/05/25 07:43:52;;;;;;;51.65;48.05;;;;;;;17.85;47.00;102674.91;5006334;28;20475;-73
2023/05/25 07:46:21;;;;;;;50.10;47.40;;;;;;;17.87;46.99;102672.75;5014104;28;20068;-72
2023/05/25 07:48:46;;;;;;;;;;;;;;;17.92;47.21;102675.59;5014030;28;20045;-72
2023/05/25 07:51:11;;;;;;;48.35;45.78;;;;;;;17.95;46.86;102677.81;5006636;28;19917;-72
2023/05/25 07:53:37;;;;;;;51.00;48.33;;;;;;;18.00;47.28;102677.91;5003281;28;20386;-73
2023/05/25 07:56:03;;;;;;;50.28;46.88;;;;;;;18.05;47.08;102685.41;4993866;28;20045;-72
2023/05/25 07:58:29;;;;;;;53.58;50.40;;;;;;;18.10;47.33;102680.03;4999758;28;20038;-73
2023/05/25 08:00:54;;;;;;;52.05;49.10;;;;;;;18.16;46.77;102682.56;5009382;28;20049;-72
2023/05/25 08:03:20;;;;;;;52.70;49.72;;;;;;;18.21;46.59;102687.31;5016791;28;20065;-72
2023/05/25 08:05:45;;;;;;;49.88;47.35;;;;;;;18.28;46.72;102687.16;5004480;28;20042;-72
2023/05/25 08:08:13;;;;;;;51.22;48.53;;;;;;;18.32;46.44;102691.03;5012143;28;20038;-73
2023/05/25 08:10:38;;;;;;;53.20;50.28;;;;;;;18.37;47.61;102696.63;5009136;28;20045;-72
2023/05/25 08:13:03;;;;;;;53.80;50.70;;;;;;;18.45;47.03;102688.00;5005842;28;20038;-71
2023/05/25 08:15:29;;;;;;;53.10;50.50;;;;;;;18.52;47.57;102693.28;5009239;28;20046;-71
2023/05/25 08:17:55;;;;;;;54.25;51.17;;;;;;;18.60;47.42;102698.38;4994605;28;20128;-72
2023/05/25 08:20:20;;;;;;;53.25;50.47;;;;;;;18.68;47.16;102700.69;4992867;28;20058;-72
2023/05/25 08:22:46;;;;;;;55.03;51.42;;;;;;;18.76;47.52;102699.47;4984060;28;20038;-72
2023/05/25 08:25:11;;;;;;;55.17;52.58;;;;;;;18.81;47.59;102703.13;5012061;28;20041;-71
2023/05/25 08:27:37;;;;;;;59.50;56.00;;;;;;;18.89;47.29;102701.03;4998935;28;20066;-72
2023/05/25 08:30:06;;;;;;;58.88;55.65;;;;;;;18.97;47.74;102711.56;4994685;28;20467;-72
2023/05/25 08:32:31;;;;;;;57.35;54.33;;;;;;;19.03;47.67;102705.09;5006436;28;20030;-72
2023/05/25 08:34:57;;;;;;;57.90;54.80;;;;;;;19.10;47.15;102703.00;5014115;28;20091;-72
2023/05/25 08:37:23;;;;;;;57.17;53.95;;;;;;;19.17;47.38;102706.38;5011942;28;20030;-72
2023/05/25 08:39:49;;;;;;;58.25;55.05;;;;;;;19.24;47.21;102707.00;5011620;28;20053;-73
2023/05/25 08:42:14;;;;;;;56.42;53.58;;;;;;;19.34;46.96;102710.97;5013610;28;20483;-72
2023/05/25 08:44:40;;;;;;;60.53;56.63;;;;;;;19.41;47.27;102719.84;5014043;28;20038;-72
2023/05/25 08:47:09;;;;;;;58.88;55.58;;;;;;;19.46;47.30;102720.75;4996730;28;20065;-72
2023/05/25 08:49:37;;;;;;;58.47;55.40;;;;;;;19.52;47.42;102709.84;5008494;28;20113;-72
2023/05/25 08:52:04;;;;;;;59.30;56.25;;;;;;;19.60;46.76;102712.13;4998560;28;20060;-73
2023/05/25 08:54:36;;;;;;;59.30;56.25;;;;;;;19.66;47.07;102709.19;5019159;28;20044;-78
2023/05/25 08:57:20;;;;;;;60.83;57.55;;;;;;;19.74;46.84;102712.59;5015803;28;20038;-72
2023/05/25 08:59:56;;;;;;;61.25;58.00;;;;;;;19.79;46.41;102716.22;5022172;28;20597;-72
2023/05/25 09:02:50;;;;;;;61.40;58.00;;;;;;;19.87;46.76;102718.50;5004988;28;20026;-72
2023/05/25 09:05:16;;;;;;;60.92;57.72;;;;;;;19.93;46.54;102713.09;5004230;28;20046;-72
2023/05/25 09:07:42;;;;;;;63.03;59.38;;;;;;;19.99;46.73;102712.88;4993126;28;20068;-81
2023/05/25 09:10:09;;;;;;;62.63;58.35;;;;;;;20.06;46.39;102718.19;5008582;28;20030;-75
2023/05/25 09:12:36;;;;;;;63.65;60.45;;;;;;;20.12;45.85;102730.84;5013119;28;20478;-73
2023/05/25 09:15:02;;;;;;;64.07;60.88;;;;;;;20.18;46.14;102720.75;5017436;28;20042;-73
2023/05/25 09:17:28;;;;;;;62.20;59.33;;;;;;;20.23;46.30;102726.28;5000966;28;20041;-72
2023/05/25 09:19:53;;;;;;;63.80;60.63;;;;;;;20.28;46.25;102729.91;5017136;28;20044;-74
2023/05/25 09:22:19;;;;;;;65.05;61.55;;;;;;;20.32;46.26;102728.31;5025886;28;20475;-73
2023/05/25 09:24:44;;;;;;;68.97;65.15;;;;;;;20.37;45.52;102724.78;5026515;28;20046;-73
2023/05/25 09:27:11;;;;;;;64.82;61.50;;;;;;;20.43;44.87;102717.41;5004152;28;20072;-73
2023/05/25 09:29:36;;;;;;;65.03;61.08;;;;;;;20.48;45.24;102722.94;5017491;28;20049;-74
2023/05/25 09:32:05;;;;;;;64.53;61.22;;;;;;;20.51;45.17;102722.41;4991774;28;20034;-73
2023/05/25 09:34:33;;;;;;;67.00;62.67;;;;;;;20.57;45.44;102717.84;5010012;28;20034;-73
2023/05/25 09:37:03;;;;;;;67.53;64.15;;;;;;;20.61;44.88;102725.28;5019935;28;20026;-73
2023/05/25 09:39:29;;;;;;;67.95;64.55;;;;;;;20.65;44.43;102717.34;5015285;28;20069;-73
2023/05/25 09:41:56;;;;;;;66.47;63.25;;;;;;;20.68;44.92;102728.63;5010635;28;20065;-73
2023/05/25 09:44:21;;;;;;;65.32;62.22;;;;;;;20.72;44.73;102721.53;4992912;28;20040;-73
2023/05/25 09:46:47;;;;;;;65.57;62.38;;;;;;;20.76;45.54;102724.56;5007827;28;20133;-73
2023/05/25 09:49:12;;;;;;;67.13;63.63;;;;;;;20.80;44.93;102733.13;5000862;28;20037;-73
2023/05/25 09:51:38;;;;;;;67.22;63.83;;;;;;;20.83;44.99;102724.34;5006148;28;20038;-73
2023/05/25 09:54:07;;;;;;;66.88;63.33;;;;;;;20.87;44.97;102725.50;5001811;28;20037;-73
2023/05/25 09:56:32;;;;;;;71.28;67.00;;;;;;;20.91;44.93;102732.91;5008139;28;20100;-74
2023/05/25 09:58:58;;;;;;;69.90;66.07;;;;;;;20.95;44.95;102730.47;4977014;28;20422;-72
2023/05/25 10:01:24;;;;;;;68.72;64.95;;;;;;;20.98;45.03;102731.88;5008310;28;20034;-72
2023/05/25 10:03:50;;;;;;;69.63;65.70;;;;;;;21.01;45.06;102732.16;5011137;28;20399;-72
2023/05/25 10:06:19;;;;;;;67.40;63.95;;;;;;;21.04;44.41;102731.66;4982043;28;20444;-73
2023/05/25 10:08:46;;;;;;;67.35;64.05;;;;;;;21.06;44.22;102736.88;4990836;28;20133;-73
2023/05/25 10:11:15;;;;;;;69.32;65.88;;;;;;;21.08;44.42;102734.69;4999520;28;20040;-72
2023/05/25 10:13:45;;;;;;;70.18;66.65;;;;;;;21.10;44.82;102736.06;5011657;28;20042;-72
2023/05/25 10:16:17;;;;;;;69.40;65.70;;;;;;;21.13;44.29;102727.28;5008519;28;20050;-72
2023/05/25 10:18:48;;;;;;;70.28;66.72;;;;;;;21.18;44.09;102726.50;5009390;28;20335;-72
2023/05/25 10:21:16;;;;;;;73.20;69.60;;;;;;;21.20;43.09;102729.81;5025714;28;20041;-72
2023/05/25 10:23:46;;;;;;;68.25;64.80;;;;;;;21.22;43.53;102724.03;5009737;28;20069;-72
2023/05/25 10:26:21;;;;;;;67.82;64.55;;;;;;;21.23;43.04;102728.47;5007998;28;20034;-72
2023/05/25 10:28:50;;;;;;;70.00;66.53;;;;;;;21.25;43.31;102727.09;4991132;28;20038;-73
2023/05/25 10:31:16;;;;;;;68.10;64.65;;;;;;;21.27;43.67;102719.41;5004035;28;20026;-72
2023/05/25 10:33:43;;;;;;;67.53;64.32;;;;;;;21.30;43.90;102724.38;5002779;28;20117;-72
2023/05/25 10:36:09;;;;;;;69.57;65.80;;;;;;;21.30;44.46;102735.38;5006612;28;20073;-72
2023/05/25 10:38:37;;;;;;;69.75;66.45;;;;;;;21.34;44.58;102735.66;5008369;28;20091;-72
2023/05/25 10:41:04;;;;;;;68.00;64.75;;;;;;;21.35;44.71;102735.38;4992603;28;20141;-72
2023/05/25 10:43:30;;;;;;;70.45;67.00;;;;;;;21.38;44.15;102736.78;5008045;28;20355;-73
2023/05/25 10:45:56;;;;;;;68.55;65.38;;;;;;;21.42;44.35;102739.84;5004430;28;20046;-72
2023/05/25 10:48:21;;;;;;;72.50;68.63;;;;;;;21.44;44.69;102735.72;4994263;28;20155;-73
2023/05/25 10:50:50;;;;;;;71.13;67.40;;;;;;;21.46;44.04;102733.53;5037317;28;20041;-73
2023/05/25 10:53:15;;;;;;;;;;;;;;;21.48;44.35;102736.84;4991559;28;20069;-73
2023/05/25 10:55:50;;;;;;;67.97;64.20;;;;;;;21.50;43.92;102737.41;4990602;28;19983;-73
2023/05/25 10:58:17;;;;;;;69.03;65.78;;;;;;;21.52;43.84;102729.75;4998557;28;20037;-71
2023/05/25 11:01:01;;;;;;;68.32;65.13;;;;;;;21.55;44.11;102736.63;5008577;28;20034;-71
2023/05/25 11:04:00;;;;;;;67.50;64.45;;;;;;;21.58;44.57;102730.59;5011348;28;20026;-71
2023/05/25 11:06:42;;;;;;;70.15;66.95;;;;;;;21.59;44.23;102727.53;5002478;28;20033;-72
2023/05/25 11:09:23;;;;;;;71.60;67.00;;;;;;;21.61;43.53;102730.03;5014675;28;20045;-72